createdAt,value
2022-08-12T00:02:16.318Z,1.80
2022-08-12T00:07:31.456Z,2.28
2022-08-12T00:12:46.681Z,1.95
2022-08-12T00:18:03.028Z,2.90
2022-08-12T00:23:18.280Z,2.05
2022-08-12T00:28:33.659Z,1.60
2022-08-12T00:33:52.511Z,1.90
2022-08-12T00:39:08.418Z,1.83
2022-08-12T00:44:07.089Z,1.73
2022-08-12T00:49:04.036Z,1.77
2022-08-12T00:54:00.537Z,1.80
2022-08-12T00:59:01.325Z,1.95
2022-08-12T01:04:17.931Z,1.50
2022-08-12T01:09:33.407Z,1.52
2022-08-12T01:14:29.752Z,1.95
2022-08-12T01:19:27.180Z,1.50
2022-08-12T01:24:51.011Z,1.83
2022-08-12T01:29:51.466Z,1.92
2022-08-12T01:35:05.570Z,1.50
2022-08-12T01:40:36.793Z,1.60
2022-08-12T01:45:24.355Z,2.25
2022-08-12T01:50:31.705Z,1.50
2022-08-12T01:55:33.328Z,1.85
2022-08-12T02:00:55.360Z,1.90
2022-08-12T02:06:35.713Z,1.67
2022-08-12T02:11:35.092Z,1.52
2022-08-12T02:16:50.559Z,1.73
2022-08-12T02:22:08.256Z,1.70
2022-08-12T02:32:04.778Z,2.00
2022-08-12T02:37:03.479Z,1.90
2022-08-12T02:42:03.089Z,1.80
2022-08-12T02:47:03.884Z,1.75
2022-08-12T02:52:00.958Z,1.92
2022-08-12T02:56:59.350Z,1.87
2022-08-12T03:01:59.469Z,2.20
2022-08-12T03:07:09.584Z,1.88
2022-08-12T03:12:07.549Z,1.95
2022-08-12T03:17:13.605Z,1.80
2022-08-12T03:22:14.679Z,2.40
2022-08-12T03:27:14.232Z,2.05
2022-08-12T03:32:36.139Z,1.98
2022-08-12T03:37:30.316Z,2.22
2022-08-12T03:42:42.332Z,2.10
2022-08-12T03:48:19.222Z,1.70
2022-08-12T03:53:40.829Z,2.03
2022-08-12T03:58:56.676Z,2.08
2022-08-12T04:03:53.810Z,1.95
2022-08-12T04:08:52.297Z,2.13
2022-08-12T04:13:48.764Z,2.22
2022-08-12T04:18:45.932Z,2.30
2022-08-12T04:23:46.347Z,2.57
2022-08-12T04:28:45.726Z,2.20
2022-08-12T04:33:43.791Z,2.80
2022-08-12T04:38:40.836Z,2.72
2022-08-12T04:43:59.701Z,2.27
2022-08-12T04:48:55.525Z,2.78
2022-08-12T04:53:52.104Z,2.53
2022-08-12T04:58:52.590Z,2.65
2022-08-12T05:03:51.573Z,2.20
2022-08-12T05:08:48.520Z,3.53
2022-08-12T05:13:46.086Z,3.33
2022-08-12T05:18:45.830Z,2.65
2022-08-12T05:23:44.273Z,2.63
2022-08-12T05:28:41.177Z,3.17
2022-08-12T05:33:38.279Z,2.77
2022-08-12T05:38:53.617Z,2.10
2022-08-12T05:43:59.505Z,1.90
2022-08-12T05:48:56.927Z,2.42
2022-08-12T05:53:54.263Z,2.35
2022-08-12T05:58:52.074Z,2.13
2022-08-12T06:03:49.823Z,2.35
2022-08-12T06:08:48.505Z,2.20
2022-08-12T06:13:54.215Z,2.97
2022-08-12T06:18:51.593Z,2.15
2022-08-12T06:23:48.116Z,2.63
2022-08-12T06:28:45.690Z,3.17
2022-08-12T06:33:55.913Z,3.60
2022-08-12T06:38:57.305Z,2.80
2022-08-12T06:44:05.671Z,3.80
2022-08-12T06:49:04.116Z,2.50
2022-08-12T06:54:01.421Z,2.83
2022-08-12T06:58:57.970Z,3.17
2022-08-12T07:03:55.326Z,3.78
2022-08-12T07:08:51.714Z,4.55
2022-08-12T07:14:05.030Z,2.53
2022-08-12T07:19:09.270Z,1.92
2022-08-12T07:24:06.626Z,1.48
2022-08-12T07:29:03.311Z,1.70
2022-08-12T07:33:59.930Z,1.88
2022-08-12T07:38:56.377Z,1.58
2022-08-12T07:44:03.906Z,1.95
2022-08-12T07:49:06.046Z,1.67
2022-08-12T07:54:09.085Z,1.33
2022-08-12T07:59:08.087Z,1.70
2022-08-12T08:04:23.957Z,1.60
2022-08-12T08:09:23.723Z,1.23
2022-08-12T08:14:21.149Z,1.70
2022-08-12T08:19:23.526Z,1.80
2022-08-12T08:24:19.956Z,1.73
2022-08-12T08:29:17.417Z,1.52
2022-08-12T08:34:33.469Z,2.38
2022-08-12T08:39:31.754Z,1.77
2022-08-12T08:44:28.259Z,1.40
2022-08-12T08:49:25.067Z,1.80
2022-08-12T08:54:21.457Z,1.23
2022-08-12T08:59:19.321Z,1.60
2022-08-12T09:05:07.832Z,1.33
2022-08-12T09:09:42.921Z,1.35
2022-08-12T09:14:51.228Z,1.27
2022-08-12T09:19:52.258Z,1.52
2022-08-12T09:24:53.794Z,1.52
2022-08-12T09:35:06.884Z,1.42
2022-08-12T09:40:57.841Z,1.55
2022-08-12T09:46:06.798Z,1.50
2022-08-12T09:50:55.466Z,1.50
2022-08-12T09:56:06.667Z,1.27
2022-08-12T10:01:23.296Z,1.35
2022-08-12T10:06:31.544Z,1.30
2022-08-12T10:12:11.620Z,1.40
2022-08-12T10:17:08.590Z,1.30
2022-08-12T10:22:16.481Z,1.17
2022-08-12T10:28:03.687Z,1.17
2022-08-12T10:33:00.071Z,1.20
2022-08-12T10:38:37.877Z,1.45
2022-08-12T10:43:55.685Z,1.08
2022-08-12T10:49:05.728Z,1.10
2022-08-12T10:54:13.365Z,1.10
2022-08-12T10:59:10.813Z,1.08
2022-08-12T11:04:24.121Z,0.90
2022-08-12T11:09:41.553Z,1.20
2022-08-12T11:14:49.799Z,1.38
2022-08-12T11:19:47.930Z,1.30
2022-08-12T11:24:51.656Z,1.65
2022-08-12T11:30:02.477Z,1.00
2022-08-12T11:35:03.813Z,1.45
2022-08-12T11:40:00.179Z,1.75
2022-08-12T11:49:52.881Z,1.10
2022-08-12T12:05:04.445Z,1.30
2022-08-12T12:10:01.979Z,1.02
2022-08-12T12:15:02.803Z,0.88
2022-08-12T12:20:11.570Z,1.15
2022-08-12T12:25:13.285Z,1.20
2022-08-12T12:30:18.044Z,0.98
2022-08-12T12:36:06.626Z,1.08
2022-08-12T12:40:45.271Z,1.30
2022-08-12T12:45:46.382Z,1.67
2022-08-12T12:51:11.968Z,1.30
2022-08-12T12:56:15.607Z,0.90
2022-08-12T13:01:26.781Z,1.10
2022-08-12T13:06:30.206Z,1.02
2022-08-12T13:11:41.298Z,1.05
2022-08-12T13:16:44.023Z,0.95
2022-08-12T13:22:00.943Z,1.15
2022-08-12T13:26:57.305Z,1.20
2022-08-12T13:32:19.490Z,1.00
2022-08-12T13:37:11.962Z,1.48
2022-08-12T13:42:14.578Z,1.27
2022-08-12T13:47:19.458Z,1.08
2022-08-12T13:52:18.526Z,1.07
2022-08-12T13:57:17.027Z,1.58
2022-08-12T14:02:13.830Z,1.20
2022-08-12T14:07:10.335Z,1.08
2022-08-12T14:12:07.514Z,1.25
2022-08-12T14:17:12.840Z,1.10
2022-08-12T14:22:17.341Z,0.90
2022-08-12T14:27:13.946Z,1.30
2022-08-12T14:32:36.621Z,0.85
2022-08-12T14:37:58.063Z,1.15
2022-08-12T14:42:49.342Z,0.95
2022-08-12T14:47:53.661Z,1.00
2022-08-12T14:58:11.947Z,1.08
2022-08-12T15:03:08.746Z,0.90
2022-08-12T15:08:11.991Z,0.80
2022-08-12T15:13:10.542Z,1.77
2022-08-12T15:18:11.946Z,1.00
2022-08-12T15:23:17.815Z,1.10
2022-08-12T15:28:22.496Z,1.00
2022-08-12T15:33:24.127Z,1.10
2022-08-12T15:38:27.299Z,1.00
2022-08-12T15:44:14.194Z,1.70
2022-08-12T15:48:46.715Z,1.30
2022-08-12T15:54:02.069Z,0.95
2022-08-12T15:58:59.118Z,1.17
2022-08-12T16:04:00.397Z,0.90
2022-08-12T16:08:57.537Z,1.10
2022-08-12T16:13:56.045Z,1.08
2022-08-12T16:18:59.580Z,1.90
2022-08-12T16:23:57.730Z,0.90
2022-08-12T16:28:56.026Z,1.30
2022-08-12T16:33:59.666Z,0.80
2022-08-12T16:39:01.729Z,0.87
2022-08-12T16:43:58.474Z,1.10
2022-08-12T16:48:56.322Z,0.85
2022-08-12T16:53:52.969Z,1.20
2022-08-12T16:58:49.371Z,0.85
2022-08-12T17:04:09.151Z,1.10
2022-08-12T17:09:08.579Z,1.10
2022-08-12T17:14:13.892Z,1.02
2022-08-12T17:19:12.041Z,1.08
2022-08-12T17:24:15.152Z,0.90
2022-08-12T17:29:16.641Z,0.90
2022-08-12T17:34:35.775Z,0.85
2022-08-12T17:40:15.598Z,0.80
2022-08-12T17:44:52.695Z,1.00
2022-08-12T17:50:02.270Z,1.10
2022-08-12T17:55:01.299Z,1.00
2022-08-12T17:59:58.119Z,0.85
2022-08-12T18:05:05.909Z,0.95
2022-08-12T18:10:07.103Z,1.17
2022-08-12T18:15:09.002Z,0.80
2022-08-12T18:20:08.710Z,0.70
2022-08-12T18:26:14.990Z,0.80
2022-08-12T18:30:55.886Z,0.75
2022-08-12T18:35:55.466Z,0.90
2022-08-12T18:41:21.373Z,0.73
2022-08-12T18:46:20.045Z,1.10
2022-08-12T18:51:21.946Z,0.73
2022-08-12T18:56:33.755Z,0.73
2022-08-12T19:02:21.305Z,0.60
2022-08-12T19:06:48.808Z,0.70
2022-08-12T19:12:06.358Z,0.80
2022-08-12T19:17:04.955Z,0.80
2022-08-12T19:22:01.810Z,0.82
2022-08-12T19:27:01.238Z,1.38
2022-08-12T19:32:00.559Z,0.90
2022-08-12T19:36:57.389Z,0.77
2022-08-12T19:42:00.717Z,0.50
2022-08-12T19:47:01.639Z,0.90
2022-08-12T19:51:59.142Z,0.90
2022-08-12T19:56:57.412Z,1.17
2022-08-12T20:02:02.854Z,0.70
2022-08-12T20:07:00.041Z,0.70
2022-08-12T20:12:14.107Z,0.50
2022-08-12T20:17:15.969Z,0.80
2022-08-12T20:22:24.160Z,0.50
2022-08-12T20:27:28.774Z,0.73
2022-08-12T20:33:00.733Z,0.80
2022-08-12T20:38:07.047Z,0.57
2022-08-12T20:43:19.042Z,0.63
2022-08-12T20:48:25.176Z,0.40
2022-08-12T20:53:33.230Z,0.35
2022-08-12T20:58:38.971Z,0.80
2022-08-12T21:03:58.390Z,0.70
2022-08-12T21:09:01.039Z,0.80
2022-08-12T21:13:59.293Z,0.60
2022-08-12T21:23:56.491Z,0.90
2022-08-12T21:29:01.701Z,0.80
2022-08-12T21:34:07.148Z,0.75
2022-08-12T21:39:18.934Z,0.90
2022-08-12T21:44:32.593Z,0.70
2022-08-12T21:49:40.547Z,0.40
2022-08-12T21:54:56.463Z,0.98
2022-08-12T21:59:54.141Z,0.60
2022-08-12T22:10:06.499Z,0.63
2022-08-12T22:15:21.656Z,0.90
2022-08-12T22:20:21.930Z,0.63
2022-08-12T22:25:20.246Z,0.73
2022-08-12T22:30:35.262Z,1.35
2022-08-12T22:35:55.846Z,0.80
2022-08-12T22:40:54.188Z,0.87
2022-08-12T22:46:20.673Z,0.75
2022-08-12T22:51:21.957Z,0.75
2022-08-12T22:56:31.003Z,0.90
2022-08-12T23:01:52.252Z,0.60
2022-08-12T23:06:54.431Z,0.77
2022-08-12T23:11:51.035Z,1.10
2022-08-12T23:16:50.262Z,0.80
2022-08-12T23:22:05.526Z,0.63
2022-08-12T23:27:44.009Z,0.63
2022-08-12T23:32:44.877Z,0.77
2022-08-12T23:37:47.207Z,0.87
2022-08-12T23:42:50.503Z,0.70
2022-08-12T23:47:48.183Z,0.80
2022-08-12T23:52:50.481Z,0.90
